Time;durP1;ratioP1;P1;durP2;ratioP2;P2;SDS_P1;SDS_P2;PMS_P1;PMS_P2;Temp;Humidity;BMP_temperature;BMP_pressure;BME280_temperature;BME280_humidity;BME280_pressure;Samples;Min_cycle;Max_cycle;Signal;HPM_P1;HPM_P2
2021/12/16 00:09:00;;;;;;;22.38;5.57;;;;;;;14.11;67.57;102489.50;4936819;28;119717;-86
2021/12/16 00:30:41;;;;;;;25.52;5.28;;;;;;;14.04;67.82;102487.69;4929844;28;123408;-88
2021/12/16 00:35:44;;;;;;;;;;;;;;;14.20;68.16;102497.97;4925257;28;120238;-89
2021/12/16 00:38:10;;;;;;;24.40;5.25;;;;;;;14.17;68.20;102487.75;4896382;28;120205;-89
2021/12/16 00:40:43;;;;;;;20.83;4.40;;;;;;;14.16;67.56;102486.22;4928592;28;120012;-90
2021/12/16 00:43:19;;;;;;;24.23;4.85;;;;;;;13.82;68.20;102436.97;4912363;28;119687;-89
2021/12/16 00:48:37;;;;;;;20.00;4.72;;;;;;;14.32;68.04;102510.28;4929221;28;122576;-88
2021/12/16 00:56:33;;;;;;;24.27;3.75;;;;;;;14.40;67.81;102530.97;4925514;28;123226;-87
2021/12/16 00:59:02;;;;;;;27.88;4.35;;;;;;;14.40;67.20;102536.50;4932072;28;119919;-90
2021/12/16 01:33:33;;;;;;;24.58;5.13;;;;;;;14.31;67.66;102550.16;4923667;28;120373;-87
2021/12/16 01:35:11;;;;;;;18.83;4.13;;;;;;;14.17;68.14;102565.03;4914513;28;119765;-89
2021/12/16 01:45:58;;;;;;;16.70;4.05;;;;;;;14.16;68.00;102576.50;4900250;28;119709;-87
2021/12/16 01:51:22;;;;;;;;;;;;;;;14.13;67.68;102567.13;4911557;28;122000;-89
2021/12/16 01:56:55;;;;;;;17.05;3.90;;;;;;;14.06;68.54;102557.03;4916466;28;119640;-89
2021/12/16 01:59:23;;;;;;;14.02;3.75;;;;;;;14.07;67.99;102561.34;4913365;28;122825;-88
2021/12/16 02:01:49;;;;;;;16.25;4.00;;;;;;;14.04;68.02;102548.41;4910233;28;123858;-89
2021/12/16 02:04:29;;;;;;;15.05;3.92;;;;;;;14.06;67.99;102564.53;4897844;28;119878;-88
2021/12/16 02:09:46;;;;;;;22.23;4.22;;;;;;;14.00;69.13;102553.22;4924899;28;122363;-88
2021/12/16 02:12:44;;;;;;;18.13;4.22;;;;;;;14.04;68.68;102553.91;4934832;28;120407;-89
2021/12/16 02:29:01;;;;;;;;;;;;;;;14.08;68.08;102582.19;4928885;28;121396;-89
2021/12/16 02:32:08;;;;;;;17.15;4.35;;;;;;;14.05;68.51;102574.00;4896057;28;124280;-89
2021/12/16 02:36:49;;;;;;;17.05;4.60;;;;;;;14.00;68.17;102564.25;4924516;28;120100;-88
2021/12/16 02:39:23;;;;;;;16.67;4.53;;;;;;;14.10;68.32;102576.25;4913738;28;120244;-89
2021/12/16 02:41:54;;;;;;;19.77;4.22;;;;;;;14.03;67.96;102568.91;4926216;28;122076;-89
2021/12/16 02:49:40;;;;;;;19.80;4.05;;;;;;;14.05;68.15;102583.06;4908496;28;121407;-88
2021/12/16 02:52:07;;;;;;;21.95;4.50;;;;;;;14.10;67.83;102585.31;4896003;28;122125;-89
2021/12/16 02:54:33;;;;;;;19.02;4.88;;;;;;;14.00;67.95;102577.28;4946600;28;119622;-89
2021/12/16 02:56:59;;;;;;;19.52;4.25;;;;;;;14.09;68.26;102594.78;4928319;28;119833;-88
2021/12/16 02:59:28;;;;;;;16.95;4.32;;;;;;;14.04;67.89;102598.06;4913205;28;122788;-86
2021/12/16 03:02:05;;;;;;;18.13;4.95;;;;;;;13.80;68.13;102560.75;4913433;28;122256;-86
2021/12/16 03:04:32;;;;;;;16.77;4.35;;;;;;;13.91;68.02;102580.59;4928942;28;123052;-88
2021/12/16 03:06:59;;;;;;;18.20;4.53;;;;;;;14.00;68.13;102602.13;4945315;28;119878;-86
2021/12/16 03:15:14;;;;;;;15.90;4.30;;;;;;;13.96;68.03;102629.78;4928893;28;119937;-87
2021/12/16 03:17:54;;;;;;;22.83;4.85;;;;;;;13.94;68.20;102637.69;4907061;28;121953;-88
2021/12/16 03:20:33;;;;;;;15.48;4.20;;;;;;;13.99;68.26;102636.44;4925763;28;122755;-87
2021/12/16 03:23:21;;;;;;;14.50;4.18;;;;;;;13.98;68.01;102640.41;4921444;28;120243;-85
2021/12/16 03:39:09;;;;;;;19.73;4.50;;;;;;;13.90;68.54;102603.88;4923428;28;122770;-89
2021/12/16 03:41:36;;;;;;;19.83;5.28;;;;;;;13.91;68.14;102623.97;4910733;28;123225;-87
2021/12/16 03:44:09;;;;;;;17.92;5.28;;;;;;;13.96;67.99;102640.03;4916974;28;120174;-88
2021/12/16 03:46:41;;;;;;;16.23;5.20;;;;;;;13.83;67.97;102626.88;4911421;28;123922;-87
2021/12/16 03:49:10;;;;;;;16.90;5.07;;;;;;;14.01;68.58;102647.81;4898846;28;119825;-87
2021/12/16 03:51:58;;;;;;;17.27;5.10;;;;;;;13.93;68.65;102641.66;4911548;28;121912;-86
2021/12/16 03:54:33;;;;;;;18.85;5.05;;;;;;;13.86;68.59;102636.28;4908603;28;123972;-86
2021/12/16 03:57:06;;;;;;;14.20;4.30;;;;;;;13.89;68.08;102640.94;4911342;28;120332;-88
2021/12/16 03:59:33;;;;;;;22.05;5.40;;;;;;;14.00;68.06;102649.78;4893434;28;121895;-88
2021/12/16 04:02:17;;;;;;;15.32;4.85;;;;;;;13.90;68.34;102637.00;4909371;28;126335;-86
2021/12/16 04:04:44;;;;;;;18.90;4.78;;;;;;;13.88;68.35;102644.91;4912033;28;119794;-86
2021/12/16 04:07:10;;;;;;;20.60;5.32;;;;;;;13.96;68.52;102671.16;4918745;28;122442;-86
2021/12/16 04:09:56;;;;;;;21.10;5.13;;;;;;;13.94;68.10;102676.31;4924185;28;120510;-87
2021/12/16 04:12:26;;;;;;;17.13;4.90;;;;;;;13.99;68.29;102683.34;4895069;28;122243;-87
2021/12/16 04:14:56;;;;;;;19.25;5.07;;;;;;;13.89;67.83;102674.06;4926101;28;122760;-87
2021/12/16 04:17:27;;;;;;;16.38;4.45;;;;;;;13.99;67.84;102694.38;4928694;28;120256;-85
2021/12/16 04:20:03;;;;;;;18.08;4.60;;;;;;;13.93;67.68;102694.06;4930579;28;120396;-86
2021/12/16 04:22:36;;;;;;;17.35;4.40;;;;;;;13.77;67.75;102683.75;4914171;28;123237;-85
2021/12/16 04:25:14;;;;;;;17.25;4.07;;;;;;;13.90;67.53;102696.91;4899612;28;120263;-85
2021/12/16 04:27:41;;;;;;;18.02;3.90;;;;;;;13.92;67.87;102709.06;4912841;28;122321;-86
2021/12/16 04:30:09;;;;;;;21.17;4.70;;;;;;;13.85;67.78;102700.16;4917496;28;123040;-86
2021/12/16 04:32:37;;;;;;;23.58;4.63;;;;;;;13.93;67.90;102716.16;4916070;28;123673;-86
2021/12/16 04:35:05;;;;;;;18.33;4.60;;;;;;;13.92;67.79;102706.31;4927932;28;120205;-86
2021/12/16 04:37:36;;;;;;;19.88;4.72;;;;;;;13.80;68.00;102695.94;4912759;28;120163;-86
2021/12/16 04:40:08;;;;;;;21.88;5.30;;;;;;;13.84;67.61;102704.91;4946674;28;120973;-86
2021/12/16 04:42:36;;;;;;;22.65;4.30;;;;;;;13.74;67.43;102697.63;4930739;28;124155;-87
2021/12/16 04:45:05;;;;;;;24.95;5.22;;;;;;;13.86;67.19;102724.56;4911398;28;120560;-85
2021/12/16 04:47:31;;;;;;;20.23;5.13;;;;;;;13.75;67.31;102710.22;4911751;28;120508;-86
2021/12/16 04:50:00;;;;;;;20.80;5.03;;;;;;;13.82;67.37;102718.34;4930867;28;120168;-86
2021/12/16 04:52:26;;;;;;;20.90;5.03;;;;;;;13.79;67.73;102714.47;4917694;28;120481;-86
2021/12/16 04:54:54;;;;;;;27.52;5.55;;;;;;;13.72;67.59;102706.31;4935301;28;120274;-84
2021/12/16 04:57:21;;;;;;;28.52;5.80;;;;;;;13.64;67.51;102706.88;4912031;28;120037;-87
2021/12/16 04:59:47;;;;;;;34.47;6.03;;;;;;;13.69;67.47;102715.41;4918880;28;121330;-86
2021/12/16 05:02:20;;;;;;;21.73;5.65;;;;;;;13.67;67.47;102720.59;4896292;28;123115;-87
2021/12/16 05:05:00;;;;;;;29.52;6.28;;;;;;;13.71;67.79;102739.81;4928614;28;119561;-84
2021/12/16 05:07:27;;;;;;;27.63;6.45;;;;;;;13.69;67.42;102753.25;4916992;28;122263;-87
2021/12/16 05:10:13;;;;;;;29.80;5.45;;;;;;;13.55;67.34;102736.97;4943328;28;122892;-85
2021/12/16 05:12:48;;;;;;;25.13;5.28;;;;;;;13.57;67.08;102748.38;4910050;28;123751;-85
2021/12/16 05:15:18;;;;;;;28.00;5.70;;;;;;;13.52;67.11;102755.94;4934365;28;122464;-86
2021/12/16 05:17:48;;;;;;;24.20;5.38;;;;;;;13.64;67.10;102778.56;4898135;28;121705;-87
2021/12/16 05:20:27;;;;;;;24.80;5.60;;;;;;;13.56;67.36;102772.41;4924197;28;122506;-85
2021/12/16 05:28:18;;;;;;;27.67;6.15;;;;;;;13.58;67.55;102781.03;4925079;28;123241;-86
2021/12/16 05:30:44;;;;;;;28.20;5.72;;;;;;;13.57;67.32;102779.47;4895882;28;123531;-87
2021/12/16 05:33:11;;;;;;;31.95;6.28;;;;;;;13.48;67.07;102774.47;4947292;28;120351;-87
2021/12/16 05:35:55;;;;;;;31.73;6.15;;;;;;;13.49;67.35;102780.81;4905784;28;123204;-86
2021/12/16 05:38:23;;;;;;;30.10;5.53;;;;;;;13.48;67.64;102774.47;4896508;28;120656;-86
2021/12/16 05:40:49;;;;;;;30.83;5.65;;;;;;;13.59;67.31;102796.38;4914155;28;122771;-85
2021/12/16 05:43:31;;;;;;;28.88;5.82;;;;;;;13.58;67.36;102805.84;4895400;28;123327;-87
2021/12/16 05:45:59;;;;;;;28.08;5.65;;;;;;;13.54;67.37;102798.84;4932252;28;120469;-86
2021/12/16 05:48:30;;;;;;;31.00;6.50;;;;;;;13.50;67.16;102788.66;4927457;28;120724;-87
2021/12/16 05:51:00;;;;;;;31.30;6.43;;;;;;;13.58;67.01;102807.84;4928796;28;122108;-86
2021/12/16 05:53:29;;;;;;;29.58;5.85;;;;;;;13.51;67.53;102806.75;4949172;28;120160;-86
2021/12/16 05:55:56;;;;;;;30.17;6.25;;;;;;;13.55;67.54;102814.19;4896511;28;122141;-87
2021/12/16 05:58:30;;;;;;;;;;;;;;;13.59;67.27;102821.19;4914358;28;124240;-85
2021/12/16 06:01:26;;;;;;;33.80;6.43;;;;;;;13.51;67.52;102814.25;4895247;28;121794;-85
2021/12/16 06:03:55;;;;;;;35.78;6.90;;;;;;;13.57;67.21;102831.09;4897344;28;124638;-86
2021/12/16 06:06:22;;;;;;;41.80;7.60;;;;;;;13.32;66.99;102801.16;4915005;28;120200;-87
2021/12/16 06:08:51;;;;;;;42.53;7.40;;;;;;;13.57;67.07;102850.41;4930190;28;122766;-85
2021/12/16 06:11:21;;;;;;;41.88;7.22;;;;;;;13.50;67.13;102849.31;4942284;28;119943;-86
2021/12/16 06:14:15;;;;;;;39.65;7.47;;;;;;;13.50;67.21;102857.59;4914044;28;120460;-85
2021/12/16 06:27:47;;;;;;;35.33;7.55;;;;;;;13.45;66.93;102874.56;4910554;28;119879;-86
2021/12/16 06:30:17;;;;;;;41.78;8.38;;;;;;;13.39;66.94;102870.75;4927189;28;122794;-86
2021/12/16 06:32:43;;;;;;;45.67;8.90;;;;;;;13.31;67.02;102857.50;4927988;28;120417;-88
2021/12/16 06:35:10;;;;;;;45.40;9.00;;;;;;;13.32;66.43;102867.31;4900879;28;120067;-87
2021/12/16 06:37:39;;;;;;;36.08;8.52;;;;;;;13.31;66.75;102879.53;4925189;28;120151;-86
2021/12/16 06:40:14;;;;;;;36.92;7.75;;;;;;;13.20;67.13;102869.44;4913166;28;120845;-87
2021/12/16 06:43:04;;;;;;;37.05;7.68;;;;;;;13.25;66.89;102884.75;4914945;28;120064;-87
2021/12/16 06:45:35;;;;;;;43.90;8.40;;;;;;;13.29;67.00;102890.19;4933160;28;119627;-87
2021/12/16 06:48:07;;;;;;;38.35;8.75;;;;;;;13.24;67.05;102891.44;4942780;28;120475;-86
2021/12/16 06:53:43;;;;;;;43.72;8.85;;;;;;;13.17;66.70;102878.53;4927874;28;127480;-87
2021/12/16 06:56:15;;;;;;;44.58;8.38;;;;;;;13.08;66.95;102880.22;4924839;28;119851;-89
2021/12/16 06:58:49;;;;;;;43.08;8.52;;;;;;;13.08;66.53;102886.50;4913109;28;121939;-88
2021/12/16 07:01:37;;;;;;;44.22;8.27;;;;;;;13.17;66.81;102902.53;4929517;28;123664;-87
2021/12/16 07:04:06;;;;;;;46.95;8.52;;;;;;;13.13;66.98;102905.34;4913401;28;120792;-88
2021/12/16 07:06:35;;;;;;;43.65;8.57;;;;;;;12.99;66.84;102890.94;4917245;28;120023;-88
2021/12/16 07:09:09;;;;;;;45.67;8.90;;;;;;;12.75;67.02;102860.56;4896456;28;123275;-88
2021/12/16 07:11:40;;;;;;;;;;;;;;;13.04;67.19;102907.03;4911491;28;119776;-87
2021/12/16 07:14:12;;;;;;;41.95;8.05;;;;;;;13.03;66.95;102922.81;4912030;28;122995;-88
2021/12/16 07:16:37;;;;;;;36.25;7.38;;;;;;;13.00;66.87;102923.59;4929175;28;119890;-88
2021/12/16 07:19:03;;;;;;;44.45;8.45;;;;;;;12.90;66.67;102911.53;4922828;28;119909;-90
2021/12/16 07:21:29;;;;;;;52.63;8.95;;;;;;;12.85;66.79;102920.25;4908938;28;122845;-88
2021/12/16 07:23:58;;;;;;;30.25;7.63;;;;;;;12.88;66.56;102932.41;4912573;28;120058;-86
2021/12/16 07:26:25;;;;;;;37.03;7.78;;;;;;;12.80;66.61;102937.25;4930836;28;120488;-88
2021/12/16 07:28:53;;;;;;;48.78;8.93;;;;;;;12.53;66.92;102906.03;4922677;28;123328;-88
2021/12/16 07:31:21;;;;;;;40.47;8.15;;;;;;;12.74;66.80;102936.09;4928680;28;119973;-89
2021/12/16 07:33:47;;;;;;;39.92;8.38;;;;;;;12.40;66.02;102883.78;4925257;28;120024;-87
2021/12/16 07:36:18;;;;;;;43.58;9.10;;;;;;;12.64;66.07;102930.72;4923498;28;121592;-88
2021/12/16 07:38:47;;;;;;;39.50;8.60;;;;;;;12.64;65.94;102930.72;4926604;28;120212;-87
2021/12/16 07:41:17;;;;;;;44.35;8.43;;;;;;;12.60;66.26;102917.00;4909471;28;122918;-89
2021/12/16 07:44:09;;;;;;;39.25;9.65;;;;;;;12.52;66.19;102926.50;4925365;28;119688;-87
2021/12/16 07:47:06;;;;;;;46.28;9.10;;;;;;;12.52;65.85;102943.03;4891501;28;122647;-87
2021/12/16 07:49:36;;;;;;;42.30;9.77;;;;;;;12.43;66.75;102938.00;4911977;28;120307;-87
2021/12/16 07:52:07;;;;;;;48.13;9.48;;;;;;;12.41;66.65;102940.41;4913298;28;119518;-88
2021/12/16 07:54:33;;;;;;;52.85;9.32;;;;;;;12.27;66.32;102941.28;4918986;28;120507;-90
2021/12/16 07:57:00;;;;;;;37.28;8.38;;;;;;;12.37;66.59;102956.16;4929631;28;119606;-86
2021/12/16 07:59:29;;;;;;;35.38;7.90;;;;;;;12.28;66.54;102942.88;4945797;28;120745;-86
2021/12/16 08:01:56;;;;;;;35.05;7.35;;;;;;;12.20;66.15;102954.34;4932532;28;122530;-87
2021/12/16 08:04:28;;;;;;;36.33;8.25;;;;;;;12.21;66.03;102961.41;4914515;28;119726;-87
2021/12/16 08:06:57;;;;;;;45.08;8.40;;;;;;;12.13;66.21;102955.19;4897717;28;122404;-88
2021/12/16 08:09:23;;;;;;;44.40;9.48;;;;;;;12.15;66.40;102963.03;4913906;28;123319;-87
2021/12/16 08:11:52;;;;;;;44.00;8.32;;;;;;;12.19;66.66;102981.09;4931586;28;120367;-86
2021/12/16 08:14:19;;;;;;;52.42;9.98;;;;;;;12.19;66.61;102980.31;4929762;28;121072;-87
2021/12/16 08:16:45;;;;;;;47.35;10.50;;;;;;;12.07;66.86;102970.59;4933558;28;121206;-90
2021/12/16 08:19:12;;;;;;;46.65;10.43;;;;;;;12.11;66.78;102985.09;4948140;28;120142;-85
2021/12/16 08:21:38;;;;;;;54.33;11.50;;;;;;;12.11;66.98;102987.06;4927873;28;120405;-87
2021/12/16 08:24:08;;;;;;;48.42;10.80;;;;;;;12.18;67.06;103001.53;4929469;28;119603;-88
2021/12/16 08:26:36;;;;;;;48.05;10.82;;;;;;;12.13;67.06;103001.19;4913762;28;122117;-87
2021/12/16 08:29:04;;;;;;;47.50;10.75;;;;;;;12.18;66.89;103007.03;4893255;28;123058;-85
2021/12/16 08:31:30;;;;;;;39.88;9.98;;;;;;;12.19;66.64;103007.81;4911830;28;121488;-85
2021/12/16 08:33:59;;;;;;;38.00;9.18;;;;;;;12.06;66.69;102987.47;4913778;28;121781;-88
2021/12/16 08:36:26;;;;;;;38.25;9.40;;;;;;;12.18;66.25;103012.53;4917642;28;124041;-87
2021/12/16 08:38:52;;;;;;;47.03;10.55;;;;;;;12.17;66.41;103030.25;4915105;28;122440;-87
2021/12/16 08:41:25;;;;;;;32.25;9.60;;;;;;;11.97;66.22;103004.44;4897344;28;123212;-86
2021/12/16 08:43:52;;;;;;;42.33;10.77;;;;;;;12.08;65.71;103029.91;4897304;28;120080;-86
2021/12/16 08:46:21;;;;;;;31.55;9.13;;;;;;;12.05;65.73;103030.69;4895280;28;122153;-87
2021/12/16 08:48:47;;;;;;;41.58;8.52;;;;;;;11.93;65.86;103026.47;4928361;28;123132;-88
2021/12/16 08:51:16;;;;;;;31.88;9.30;;;;;;;11.97;65.90;103043.72;4929885;28;120114;-89
2021/12/16 08:53:43;;;;;;;38.47;9.43;;;;;;;11.81;65.97;103015.13;4916513;28;122349;-86
2021/12/16 08:56:12;;;;;;;43.00;10.32;;;;;;;11.89;66.09;103033.19;4911668;28;123712;-86
2021/12/16 08:58:40;;;;;;;32.50;8.57;;;;;;;11.76;66.15;103027.31;4914242;28;120558;-85
2021/12/16 09:01:13;;;;;;;37.67;9.63;;;;;;;11.89;66.20;103044.97;4897645;28;122269;-87
2021/12/16 09:03:38;;;;;;;33.73;8.97;;;;;;;11.78;66.51;103026.91;4929086;28;122888;-85
2021/12/16 09:06:04;;;;;;;42.50;9.00;;;;;;;11.90;67.04;103034.75;4926885;28;119531;-84
2021/12/16 09:08:31;;;;;;;37.28;8.38;;;;;;;11.95;67.18;103039.81;4932790;28;123085;-84
2021/12/16 09:10:58;;;;;;;34.08;8.55;;;;;;;11.97;67.27;103029.97;4926306;28;120324;-85
2021/12/16 09:13:25;;;;;;;33.88;8.15;;;;;;;11.94;67.46;103030.78;4895927;28;121606;-87
2021/12/16 09:15:58;;;;;;;34.05;7.57;;;;;;;12.01;67.52;103034.66;4924203;28;123194;-87
2021/12/16 09:18:28;;;;;;;28.50;7.27;;;;;;;12.01;67.22;103034.66;4911881;28;120004;-87
2021/12/16 09:20:55;;;;;;;27.20;6.60;;;;;;;12.11;67.26;103039.34;4917176;28;121879;-87
2021/12/16 09:23:21;;;;;;;27.15;6.80;;;;;;;12.08;67.38;103031.88;4912435;28;120794;-84
2021/12/16 09:25:48;;;;;;;30.75;7.05;;;;;;;12.09;67.29;103022.44;4910992;28;119977;-86
2021/12/16 09:28:16;;;;;;;33.95;7.30;;;;;;;12.08;68.04;103024.41;4908915;28;123368;-86
2021/12/16 09:30:45;;;;;;;25.27;6.95;;;;;;;12.13;67.76;103026.75;4928049;28;119762;-84
2021/12/16 09:33:15;;;;;;;23.15;5.90;;;;;;;12.15;67.09;103035.38;4912055;28;122486;-83
2021/12/16 09:35:46;;;;;;;27.27;6.07;;;;;;;12.14;67.61;103044.03;4944438;28;120157;-86
2021/12/16 09:38:13;;;;;;;29.15;6.20;;;;;;;12.22;67.22;103045.53;4895543;28;119867;-85
2021/12/16 09:40:48;;;;;;;25.02;5.60;;;;;;;12.17;67.00;103044.00;4895001;28;122391;-86
2021/12/16 09:43:15;;;;;;;25.10;5.22;;;;;;;12.27;67.43;103056.09;4918230;28;122297;-85
2021/12/16 09:45:41;;;;;;;21.00;5.53;;;;;;;12.32;67.18;103054.91;4909624;28;122083;-84
2021/12/16 09:48:07;;;;;;;26.23;4.95;;;;;;;12.34;66.86;103063.53;4903842;28;122748;-86
2021/12/16 09:50:36;;;;;;;20.63;4.88;;;;;;;12.35;67.07;103060.38;4919563;28;120028;-84
2021/12/16 09:53:03;;;;;;;19.92;4.47;;;;;;;12.40;66.51;103072.94;4925066;28;119735;-83
2021/12/16 09:55:29;;;;;;;17.67;4.38;;;;;;;12.41;66.24;103067.03;4928037;28;120704;-85
2021/12/16 09:57:55;;;;;;;20.50;4.93;;;;;;;12.41;66.45;103071.75;4909007;28;121070;-85
2021/12/16 10:00:25;;;;;;;21.33;5.05;;;;;;;12.44;66.45;103073.69;4918460;28;122039;-81
2021/12/16 10:02:52;;;;;;;24.52;4.70;;;;;;;12.49;66.16;103076.00;4937666;28;121410;-84
2021/12/16 10:05:18;;;;;;;21.75;4.70;;;;;;;12.26;66.21;103044.31;4920495;28;121627;-85
2021/12/16 10:07:44;;;;;;;21.02;4.63;;;;;;;12.50;66.04;103072.06;4908613;28;119897;-84
2021/12/16 10:10:17;;;;;;;21.15;4.63;;;;;;;12.55;66.21;103085.41;4925684;28;120036;-83
2021/12/16 10:12:47;;;;;;;26.15;5.53;;;;;;;12.50;66.23;103083.84;4938897;28;120483;-85
2021/12/16 10:18:06;;;;;;;13.63;4.03;;;;;;;12.55;65.59;103090.91;4921996;28;120581;-83
2021/12/16 10:20:41;;;;;;;12.60;3.95;;;;;;;12.56;65.58;103087.75;4940892;28;122525;-84
2021/12/16 10:23:13;;;;;;;13.10;4.55;;;;;;;12.48;65.60;103068.94;4932095;28;122984;-82
2021/12/16 10:25:43;;;;;;;15.65;4.30;;;;;;;12.50;65.15;103083.06;4906188;28;119649;-84
2021/12/16 10:28:14;;;;;;;14.52;4.53;;;;;;;12.53;65.15;103096.78;4937590;28;123481;-84
2021/12/16 10:30:52;;;;;;;17.02;5.00;;;;;;;12.53;65.15;103098.78;4898125;28;120566;-84
2021/12/16 10:33:21;;;;;;;14.18;4.88;;;;;;;12.49;65.50;103087.00;4922589;28;119607;-84
2021/12/16 10:36:03;;;;;;;16.83;4.80;;;;;;;12.40;65.58;103068.22;4910160;28;123217;-84
2021/12/16 10:38:35;;;;;;;11.95;4.53;;;;;;;12.54;65.80;103092.09;4906730;28;121117;-84
2021/12/16 10:41:08;;;;;;;9.75;4.35;;;;;;;12.54;65.47;103108.63;4928688;28;119933;-82
2021/12/16 10:43:43;;;;;;;14.70;4.47;;;;;;;12.46;65.33;103085.84;4934183;28;122026;-85
2021/12/16 10:46:23;;;;;;;12.73;4.70;;;;;;;12.51;65.31;103095.63;4927338;28;120189;-85
2021/12/16 10:48:59;;;;;;;12.70;4.35;;;;;;;12.48;65.69;103090.94;4943453;28;120300;-85
2021/12/16 10:51:42;;;;;;;13.60;4.30;;;;;;;12.54;65.78;103103.13;4932471;28;120372;-84
2021/12/16 10:54:14;;;;;;;13.10;4.22;;;;;;;12.56;65.71;103103.50;4920767;28;122382;-85
2021/12/16 10:56:46;;;;;;;12.10;4.80;;;;;;;12.49;65.69;103098.81;4924183;28;120804;-85
2021/12/16 10:59:28;;;;;;;11.73;4.78;;;;;;;12.48;65.42;103096.47;4940438;28;122258;-85
2021/12/16 11:01:59;;;;;;;11.88;4.82;;;;;;;12.57;65.87;103116.06;4900275;28;122597;-83
2021/12/16 11:04:40;;;;;;;10.18;5.05;;;;;;;12.57;65.80;103116.06;4925910;28;123797;-84
2021/12/16 11:07:34;;;;;;;12.50;4.60;;;;;;;12.59;65.99;103111.72;4922471;28;120490;-83
2021/12/16 11:10:13;;;;;;;13.60;4.80;;;;;;;12.60;65.62;103109.75;4908014;28;119746;-84
2021/12/16 11:13:16;;;;;;;12.77;5.28;;;;;;;12.54;65.87;103103.13;4944486;28;120078;-84
2021/12/16 11:15:53;;;;;;;13.82;5.30;;;;;;;12.64;65.69;103127.03;4922564;28;122269;-85
2021/12/16 11:18:20;;;;;;;14.70;5.30;;;;;;;12.55;65.96;103118.44;4921346;28;123181;-85
2021/12/16 11:20:57;;;;;;;15.82;6.03;;;;;;;12.60;65.67;103132.56;4909420;28;119804;-82
2021/12/16 11:23:40;;;;;;;18.50;6.03;;;;;;;12.68;65.71;103125.03;4905410;28;121976;-87
2021/12/16 11:26:14;;;;;;;11.43;5.70;;;;;;;12.70;65.78;103122.63;4940427;28;121214;-84
2021/12/16 11:28:46;;;;;;;20.00;6.43;;;;;;;12.70;65.85;103122.63;4910381;28;119996;-85
2021/12/16 11:31:25;;;;;;;19.33;6.03;;;;;;;12.57;65.52;103116.84;4922873;28;121120;-85
2021/12/16 11:33:57;;;;;;;19.98;6.53;;;;;;;12.59;65.99;103136.50;4939887;28;120396;-86
2021/12/16 11:36:32;;;;;;;18.55;6.90;;;;;;;12.59;66.13;103132.97;4928349;28;120870;-84
2021/12/16 11:39:00;;;;;;;18.60;6.75;;;;;;;12.73;66.66;103143.84;4924967;28;123478;-86
2021/12/16 11:41:37;;;;;;;15.77;6.35;;;;;;;12.55;66.75;103113.72;4923275;28;120018;-84
2021/12/16 11:44:41;;;;;;;18.77;6.65;;;;;;;12.80;66.35;103152.09;4939792;28;122428;-86
2021/12/16 11:47:23;;;;;;;18.02;6.95;;;;;;;12.82;66.47;103149.69;4903533;28;123321;-85
2021/12/16 11:50:04;;;;;;;17.45;6.70;;;;;;;12.86;66.63;103149.66;4926967;28;120149;-84
2021/12/16 11:52:33;;;;;;;17.85;7.35;;;;;;;12.82;66.47;103149.69;4940333;28;120022;-85
2021/12/16 11:55:04;;;;;;;16.25;6.82;;;;;;;12.83;65.90;103156.00;4922002;28;120099;-84
2021/12/16 11:57:37;;;;;;;23.75;8.52;;;;;;;12.88;67.14;103170.09;4924040;28;120437;-83
2021/12/16 12:00:26;;;;;;;21.23;7.65;;;;;;;12.90;66.56;103173.25;4942864;28;122012;-84
2021/12/16 12:02:53;;;;;;;21.38;7.60;;;;;;;12.95;66.84;103174.00;4938082;28;119981;-83
2021/12/16 12:05:31;;;;;;;21.65;7.70;;;;;;;12.99;66.51;103169.22;4909395;28;121161;-82
2021/12/16 12:08:04;;;;;;;26.50;8.10;;;;;;;13.03;66.45;103176.28;4919754;28;121837;-85
2021/12/16 12:11:06;;;;;;;25.77;8.23;;;;;;;13.15;66.83;103177.75;4935768;28;120159;-82
2021/12/16 12:13:38;;;;;;;27.17;7.72;;;;;;;13.23;66.60;103187.53;4896937;28;122450;-83
2021/12/16 12:16:09;;;;;;;22.60;7.88;;;;;;;13.28;65.98;103189.88;4908536;28;123005;-83
2021/12/16 12:18:34;;;;;;;22.35;7.75;;;;;;;13.30;66.20;103183.97;4909051;28;121356;-85
2021/12/16 12:21:27;;;;;;;25.98;9.40;;;;;;;13.35;66.15;103192.56;4913417;28;121760;-83
2021/12/16 12:24:13;;;;;;;25.95;9.30;;;;;;;13.31;66.37;103172.53;4924718;28;119507;-83
2021/12/16 12:26:55;;;;;;;22.52;9.68;;;;;;;13.39;65.97;103179.53;4924530;28;120208;-82
2021/12/16 12:29:28;;;;;;;27.02;10.77;;;;;;;13.47;65.97;103186.50;4943559;28;120579;-82
2021/12/16 12:31:59;;;;;;;28.73;10.00;;;;;;;13.51;65.81;103197.53;4910308;28;119939;-84
2021/12/16 12:34:26;;;;;;;25.05;10.00;;;;;;;13.45;65.72;103188.13;4927249;28;122864;-83
2021/12/16 12:36:54;;;;;;;23.65;8.82;;;;;;;13.45;66.43;103180.63;4907198;28;122813;-84
2021/12/16 12:39:25;;;;;;;21.80;8.23;;;;;;;13.52;65.58;103190.81;4904739;28;120347;-83
2021/12/16 12:41:52;;;;;;;23.58;8.50;;;;;;;13.47;65.56;103186.50;4909800;28;120208;-84
2021/12/16 12:44:18;;;;;;;24.70;8.40;;;;;;;13.44;66.24;103184.59;4931329;28;122947;-83
2021/12/16 12:46:45;;;;;;;23.08;7.82;;;;;;;13.44;65.99;103190.09;4926315;28;119970;-84
2021/12/16 12:49:14;;;;;;;22.67;8.15;;;;;;;13.54;65.64;103207.75;4925755;28;120012;-82
2021/12/16 12:51:48;;;;;;;28.60;8.23;;;;;;;13.54;65.60;103205.00;4890746;28;120538;-84
2021/12/16 12:54:18;;;;;;;;;;;;;;;13.50;65.62;103207.78;4929307;28;120613;-81
2021/12/16 12:56:45;;;;;;;20.90;8.00;;;;;;;13.42;65.56;103186.97;4909433;28;123526;-85
2021/12/16 12:59:15;;;;;;;21.52;7.25;;;;;;;13.43;65.56;103193.25;4926723;28;120065;-85
2021/12/16 13:01:52;;;;;;;25.55;7.72;;;;;;;13.47;65.50;103199.53;4942366;28;120491;-84
2021/12/16 13:04:23;;;;;;;22.52;7.82;;;;;;;13.42;65.43;103214.53;4910031;28;123391;-83
2021/12/16 13:06:52;;;;;;;21.10;7.13;;;;;;;13.39;65.79;103215.34;4945856;28;120266;-82
2021/12/16 13:09:24;;;;;;;19.05;6.93;;;;;;;13.28;65.58;103202.88;4909823;28;124683;-85
2021/12/16 13:11:49;;;;;;;22.25;6.85;;;;;;;13.28;65.93;103203.66;4926924;28;119950;-85
2021/12/16 13:14:21;;;;;;;27.92;7.43;;;;;;;13.30;65.96;103211.53;4913116;28;121863;-84
2021/12/16 13:17:13;;;;;;;;;;;;;;;;;;;;;
2021/12/16 13:28:03;;;;;;;21.88;6.95;;;;;;;13.24;66.04;103172.56;4924997;28;120863;-84
2021/12/16 13:30:38;;;;;;;25.23;7.53;;;;;;;13.29;66.63;103177.66;4929646;28;119671;-85
2021/12/16 13:33:26;;;;;;;17.52;6.93;;;;;;;13.34;66.65;103190.22;4926375;28;120288;-85
2021/12/16 13:36:03;;;;;;;20.02;7.03;;;;;;;13.33;66.39;103183.91;4907968;28;121856;-84
2021/12/16 13:38:41;;;;;;;19.88;6.25;;;;;;;13.28;66.06;103189.09;4924961;28;120624;-84
2021/12/16 13:41:53;;;;;;;19.42;6.38;;;;;;;13.30;66.11;103183.97;4909198;28;119763;-84
2021/12/16 13:44:18;;;;;;;21.70;6.40;;;;;;;13.26;66.03;103184.00;4903125;28;122742;-83
2021/12/16 13:47:07;;;;;;;20.77;6.78;;;;;;;13.23;66.64;103184.00;4942945;28;120139;-83
2021/12/16 13:58:26;;;;;;;23.55;8.00;;;;;;;13.14;66.29;103174.22;4927185;28;121876;-84
2021/12/16 14:04:07;;;;;;;24.40;6.47;;;;;;;13.11;66.74;103165.97;4926275;28;121157;-85
2021/12/16 14:06:53;;;;;;;30.33;6.57;;;;;;;13.14;66.73;103179.72;4926527;28;122061;-82
2021/12/16 14:09:28;;;;;;;39.00;12.65;;;;;;;13.18;66.75;103190.75;4925975;28;122722;-84
2021/12/16 14:14:42;;;;;;;27.42;7.55;;;;;;;13.16;66.95;103198.59;4925810;28;122270;-83
2021/12/16 14:17:52;;;;;;;29.75;6.38;;;;;;;13.12;66.42;103184.88;4909017;28;124458;-84
2021/12/16 14:23:17;;;;;;;27.38;6.97;;;;;;;13.01;66.98;103181.44;4940775;28;123357;-83
2021/12/16 14:26:12;;;;;;;28.48;7.90;;;;;;;13.06;66.77;103203.03;4892477;28;119834;-85
2021/12/16 14:40:03;;;;;;;25.73;7.70;;;;;;;12.87;66.73;103222.84;4921378;28;123152;-82
2021/12/16 14:45:30;;;;;;;30.42;8.20;;;;;;;12.79;66.25;103229.63;4921957;28;122911;-81